sensor_id;sensor_type;location;lat;lon;timestamp;temperature;humidity
44843;DHT22;31884;52.538;13.820;2024-02-26T00:01:36;0.50;99.90
44843;DHT22;31884;52.538;13.820;2024-02-26T00:04:01;0.50;99.90
44843;DHT22;31884;52.538;13.820;2024-02-26T00:06:31;0.40;99.90
44843;DHT22;31884;52.538;13.820;2024-02-26T00:08:56;0.40;99.90
44843;DHT22;31884;52.538;13.820;2024-02-26T00:11:22;0.40;99.90
44843;DHT22;31884;52.538;13.820;2024-02-26T00:13:48;0.40;99.90
44843;DHT22;31884;52.538;13.820;2024-02-26T00:16:14;0.30;99.90
44843;DHT22;31884;52.538;13.820;2024-02-26T00:18:39;0.30;99.90
44843;DHT22;31884;52.538;13.820;2024-02-26T00:21:05;0.20;99.90
44843;DHT22;31884;52.538;13.820;2024-02-26T00:23:30;0.20;99.90
44843;DHT22;31884;52.538;13.820;2024-02-26T00:25:56;0.20;99.90
44843;DHT22;31884;52.538;13.820;2024-02-26T00:28:21;0.10;99.90
44843;DHT22;31884;52.538;13.820;2024-02-26T00:30:50;0.10;99.90
44843;DHT22;31884;52.538;13.820;2024-02-26T00:33:21;0.00;99.90
44843;DHT22;31884;52.538;13.820;2024-02-26T00:35:49;0.00;99.90
44843;DHT22;31884;52.538;13.820;2024-02-26T00:38:15;-0.10;99.90
44843;DHT22;31884;52.538;13.820;2024-02-26T00:40:40;-0.10;99.90
44843;DHT22;31884;52.538;13.820;2024-02-26T00:43:06;0.00;99.90
44843;DHT22;31884;52.538;13.820;2024-02-26T00:45:32;0.00;99.90
44843;DHT22;31884;52.538;13.820;2024-02-26T00:47:58;0.00;99.90
44843;DHT22;31884;52.538;13.820;2024-02-26T00:50:26;0.00;99.90
44843;DHT22;31884;52.538;13.820;2024-02-26T00:52:52;0.00;99.90
44843;DHT22;31884;52.538;13.820;2024-02-26T00:55:17;-0.10;99.90
44843;DHT22;31884;52.538;13.820;2024-02-26T00:57:43;-0.10;99.90
44843;DHT22;31884;52.538;13.820;2024-02-26T01:00:08;-0.10;99.90
44843;DHT22;31884;52.538;13.820;2024-02-26T01:02:34;-0.10;99.90
44843;DHT22;31884;52.538;13.820;2024-02-26T01:05:00;-0.20;99.90
44843;DHT22;31884;52.538;13.820;2024-02-26T01:07:25;-0.20;99.90
44843;DHT22;31884;52.538;13.820;2024-02-26T01:09:51;-0.20;99.90
44843;DHT22;31884;52.538;13.820;2024-02-26T01:12:16;-0.30;99.90
44843;DHT22;31884;52.538;13.820;2024-02-26T01:14:41;-0.30;99.90
44843;DHT22;31884;52.538;13.820;2024-02-26T01:17:07;-0.30;99.90
44843;DHT22;31884;52.538;13.820;2024-02-26T01:19:32;-0.30;99.90
44843;DHT22;31884;52.538;13.820;2024-02-26T01:21:58;-0.30;99.90
44843;DHT22;31884;52.538;13.820;2024-02-26T01:24:26;-0.30;99.90
44843;DHT22;31884;52.538;13.820;2024-02-26T01:26:52;-0.30;99.90
44843;DHT22;31884;52.538;13.820;2024-02-26T01:29:17;-0.30;99.90
44843;DHT22;31884;52.538;13.820;2024-02-26T01:31:43;-0.30;99.90
44843;DHT22;31884;52.538;13.820;2024-02-26T01:34:08;-0.30;99.90
44843;DHT22;31884;52.538;13.820;2024-02-26T01:36:34;-0.30;99.90
44843;DHT22;31884;52.538;13.820;2024-02-26T01:39:00;-0.30;99.90
44843;DHT22;31884;52.538;13.820;2024-02-26T01:41:25;-0.30;99.90
44843;DHT22;31884;52.538;13.820;2024-02-26T01:43:50;-0.30;99.90
44843;DHT22;31884;52.538;13.820;2024-02-26T01:46:16;-0.30;99.90
44843;DHT22;31884;52.538;13.820;2024-02-26T01:48:43;-0.20;99.90
44843;DHT22;31884;52.538;13.820;2024-02-26T01:51:10;-0.20;99.90
44843;DHT22;31884;52.538;13.820;2024-02-26T01:53:37;-0.20;99.90
44843;DHT22;31884;52.538;13.820;2024-02-26T01:56:03;-0.20;99.90
44843;DHT22;31884;52.538;13.820;2024-02-26T01:58:29;-0.20;99.90
44843;DHT22;31884;52.538;13.820;2024-02-26T02:00:56;-0.20;99.90
44843;DHT22;31884;52.538;13.820;2024-02-26T02:03:22;-0.20;99.90
44843;DHT22;31884;52.538;13.820;2024-02-26T02:05:50;-0.20;99.90
44843;DHT22;31884;52.538;13.820;2024-02-26T02:08:16;-0.10;99.90
44843;DHT22;31884;52.538;13.820;2024-02-26T02:10:42;-0.10;99.90
44843;DHT22;31884;52.538;13.820;2024-02-26T02:13:08;-0.10;99.90
44843;DHT22;31884;52.538;13.820;2024-02-26T02:15:33;-0.10;99.90
44843;DHT22;31884;52.538;13.820;2024-02-26T02:18:01;-0.10;99.90
44843;DHT22;31884;52.538;13.820;2024-02-26T02:20:34;-0.10;99.90
44843;DHT22;31884;52.538;13.820;2024-02-26T02:23:03;-0.10;99.90
44843;DHT22;31884;52.538;13.820;2024-02-26T02:25:28;-0.10;99.90
44843;DHT22;31884;52.538;13.820;2024-02-26T02:27:55;-0.10;99.90
44843;DHT22;31884;52.538;13.820;2024-02-26T02:30:25;-0.20;99.90
44843;DHT22;31884;52.538;13.820;2024-02-26T02:32:52;-0.20;99.90
44843;DHT22;31884;52.538;13.820;2024-02-26T02:35:17;-0.20;99.90
44843;DHT22;31884;52.538;13.820;2024-02-26T02:37:43;-0.20;99.90
44843;DHT22;31884;52.538;13.820;2024-02-26T02:40:08;-0.30;99.90
44843;DHT22;31884;52.538;13.820;2024-02-26T02:42:34;-0.20;99.90
44843;DHT22;31884;52.538;13.820;2024-02-26T02:45:03;-0.20;99.90
44843;DHT22;31884;52.538;13.820;2024-02-26T02:47:29;-0.20;99.90
44843;DHT22;31884;52.538;13.820;2024-02-26T02:49:54;-0.20;99.90
44843;DHT22;31884;52.538;13.820;2024-02-26T02:52:20;-0.20;99.90
44843;DHT22;31884;52.538;13.820;2024-02-26T02:54:46;-0.20;99.90
44843;DHT22;31884;52.538;13.820;2024-02-26T02:57:15;-0.20;99.90
44843;DHT22;31884;52.538;13.820;2024-02-26T02:59:40;-0.30;99.90
44843;DHT22;31884;52.538;13.820;2024-02-26T03:02:06;-0.30;99.90
44843;DHT22;31884;52.538;13.820;2024-02-26T03:04:32;-0.30;99.90
44843;DHT22;31884;52.538;13.820;2024-02-26T03:06:57;-0.30;99.90
44843;DHT22;31884;52.538;13.820;2024-02-26T03:09:23;-0.30;99.90
44843;DHT22;31884;52.538;13.820;2024-02-26T03:11:49;-0.30;99.90
44843;DHT22;31884;52.538;13.820;2024-02-26T03:14:14;-0.20;99.90
44843;DHT22;31884;52.538;13.820;2024-02-26T03:16:40;-0.20;99.90
44843;DHT22;31884;52.538;13.820;2024-02-26T03:19:05;-0.30;99.90
44843;DHT22;31884;52.538;13.820;2024-02-26T03:21:31;-0.30;99.90
44843;DHT22;31884;52.538;13.820;2024-02-26T03:23:56;-0.30;99.90
44843;DHT22;31884;52.538;13.820;2024-02-26T03:26:22;-0.40;99.90
44843;DHT22;31884;52.538;13.820;2024-02-26T03:28:48;-0.30;99.90
44843;DHT22;31884;52.538;13.820;2024-02-26T03:31:14;-0.30;99.90
44843;DHT22;31884;52.538;13.820;2024-02-26T03:33:40;-0.30;99.90
44843;DHT22;31884;52.538;13.820;2024-02-26T03:36:05;-0.30;99.90
44843;DHT22;31884;52.538;13.820;2024-02-26T03:38:33;-0.30;99.90
44843;DHT22;31884;52.538;13.820;2024-02-26T03:40:58;-0.30;99.90
44843;DHT22;31884;52.538;13.820;2024-02-26T03:43:24;-0.30;99.90
44843;DHT22;31884;52.538;13.820;2024-02-26T03:45:49;-0.20;99.90
44843;DHT22;31884;52.538;13.820;2024-02-26T03:48:15;-0.20;99.90
44843;DHT22;31884;52.538;13.820;2024-02-26T03:50:40;-0.20;99.90
44843;DHT22;31884;52.538;13.820;2024-02-26T03:53:06;-0.10;99.90
44843;DHT22;31884;52.538;13.820;2024-02-26T03:55:34;0.00;99.90
44843;DHT22;31884;52.538;13.820;2024-02-26T03:57:59;0.00;99.90
44843;DHT22;31884;52.538;13.820;2024-02-26T04:00:25;0.00;99.90
44843;DHT22;31884;52.538;13.820;2024-02-26T04:02:51;0.00;99.90
44843;DHT22;31884;52.538;13.820;2024-02-26T04:05:17;0.00;99.90
44843;DHT22;31884;52.538;13.820;2024-02-26T04:07:42;0.00;99.90
44843;DHT22;31884;52.538;13.820;2024-02-26T04:10:11;0.00;99.90
44843;DHT22;31884;52.538;13.820;2024-02-26T04:12:41;0.10;99.90
44843;DHT22;31884;52.538;13.820;2024-02-26T04:15:10;0.10;99.90
44843;DHT22;31884;52.538;13.820;2024-02-26T04:17:36;0.10;99.90
44843;DHT22;31884;52.538;13.820;2024-02-26T04:20:03;0.20;99.90
44843;DHT22;31884;52.538;13.820;2024-02-26T04:22:29;0.30;99.90
44843;DHT22;31884;52.538;13.820;2024-02-26T04:24:54;0.30;99.90
44843;DHT22;31884;52.538;13.820;2024-02-26T04:27:20;0.40;99.90
44843;DHT22;31884;52.538;13.820;2024-02-26T04:29:45;0.40;99.90
44843;DHT22;31884;52.538;13.820;2024-02-26T04:32:10;0.50;99.90
44843;DHT22;31884;52.538;13.820;2024-02-26T04:34:36;0.50;99.90
44843;DHT22;31884;52.538;13.820;2024-02-26T04:37:01;0.50;99.90
44843;DHT22;31884;52.538;13.820;2024-02-26T04:39:27;0.50;99.90
44843;DHT22;31884;52.538;13.820;2024-02-26T04:41:52;0.60;99.90
44843;DHT22;31884;52.538;13.820;2024-02-26T04:44:18;0.60;99.90
44843;DHT22;31884;52.538;13.820;2024-02-26T04:46:43;0.60;99.90
44843;DHT22;31884;52.538;13.820;2024-02-26T04:49:09;0.60;99.90
44843;DHT22;31884;52.538;13.820;2024-02-26T04:51:34;0.50;99.90
44843;DHT22;31884;52.538;13.820;2024-02-26T04:54:00;0.50;99.90
44843;DHT22;31884;52.538;13.820;2024-02-26T04:56:25;0.40;99.90
44843;DHT22;31884;52.538;13.820;2024-02-26T04:58:51;0.40;99.90
44843;DHT22;31884;52.538;13.820;2024-02-26T05:01:16;0.30;99.90
44843;DHT22;31884;52.538;13.820;2024-02-26T05:03:42;0.30;99.90
44843;DHT22;31884;52.538;13.820;2024-02-26T05:06:08;0.30;99.90
44843;DHT22;31884;52.538;13.820;2024-02-26T05:08:34;0.30;99.90
44843;DHT22;31884;52.538;13.820;2024-02-26T05:11:02;0.30;99.90
44843;DHT22;31884;52.538;13.820;2024-02-26T05:13:29;0.20;99.90
44843;DHT22;31884;52.538;13.820;2024-02-26T05:15:54;0.30;99.90
44843;DHT22;31884;52.538;13.820;2024-02-26T05:18:20;0.30;99.90
44843;DHT22;31884;52.538;13.820;2024-02-26T05:20:45;0.30;99.90
44843;DHT22;31884;52.538;13.820;2024-02-26T05:23:11;0.30;99.90
44843;DHT22;31884;52.538;13.820;2024-02-26T05:25:36;0.30;99.90
44843;DHT22;31884;52.538;13.820;2024-02-26T05:28:02;0.30;99.90
44843;DHT22;31884;52.538;13.820;2024-02-26T05:30:27;0.40;99.90
44843;DHT22;31884;52.538;13.820;2024-02-26T05:32:53;0.50;99.90
44843;DHT22;31884;52.538;13.820;2024-02-26T05:35:19;0.50;99.90
44843;DHT22;31884;52.538;13.820;2024-02-26T05:37:45;0.50;99.90
44843;DHT22;31884;52.538;13.820;2024-02-26T05:40:11;0.50;99.90
44843;DHT22;31884;52.538;13.820;2024-02-26T05:42:36;0.50;99.90
44843;DHT22;31884;52.538;13.820;2024-02-26T05:45:02;0.50;99.90
44843;DHT22;31884;52.538;13.820;2024-02-26T05:47:33;0.60;99.90
44843;DHT22;31884;52.538;13.820;2024-02-26T05:49:58;0.50;99.90
44843;DHT22;31884;52.538;13.820;2024-02-26T05:52:26;0.60;99.90
44843;DHT22;31884;52.538;13.820;2024-02-26T05:54:52;0.60;99.90
44843;DHT22;31884;52.538;13.820;2024-02-26T05:57:18;0.60;99.90
44843;DHT22;31884;52.538;13.820;2024-02-26T05:59:44;0.60;99.90
44843;DHT22;31884;52.538;13.820;2024-02-26T06:02:09;0.60;99.90
44843;DHT22;31884;52.538;13.820;2024-02-26T06:04:35;0.60;99.90
44843;DHT22;31884;52.538;13.820;2024-02-26T06:07:00;0.60;99.90
44843;DHT22;31884;52.538;13.820;2024-02-26T06:09:26;0.50;99.90
44843;DHT22;31884;52.538;13.820;2024-02-26T06:11:51;0.60;99.90
44843;DHT22;31884;52.538;13.820;2024-02-26T06:14:17;0.60;99.90
44843;DHT22;31884;52.538;13.820;2024-02-26T06:16:44;0.60;99.90
44843;DHT22;31884;52.538;13.820;2024-02-26T06:19:10;0.60;99.90
44843;DHT22;31884;52.538;13.820;2024-02-26T06:21:36;0.60;99.90
44843;DHT22;31884;52.538;13.820;2024-02-26T06:24:01;0.60;99.90
44843;DHT22;31884;52.538;13.820;2024-02-26T06:26:27;0.70;99.90
44843;DHT22;31884;52.538;13.820;2024-02-26T06:28:55;0.70;99.90
44843;DHT22;31884;52.538;13.820;2024-02-26T06:31:21;0.70;99.90
44843;DHT22;31884;52.538;13.820;2024-02-26T06:33:48;0.80;99.90
44843;DHT22;31884;52.538;13.820;2024-02-26T06:36:13;0.80;99.90
44843;DHT22;31884;52.538;13.820;2024-02-26T06:38:39;1.00;99.90
44843;DHT22;31884;52.538;13.820;2024-02-26T06:41:05;1.00;99.90
44843;DHT22;31884;52.538;13.820;2024-02-26T06:43:30;1.10;99.90
44843;DHT22;31884;52.538;13.820;2024-02-26T06:45:56;1.30;99.90
44843;DHT22;31884;52.538;13.820;2024-02-26T06:48:23;1.60;99.90
44843;DHT22;31884;52.538;13.820;2024-02-26T06:50:48;1.90;99.90
44843;DHT22;31884;52.538;13.820;2024-02-26T06:53:14;2.20;99.90
44843;DHT22;31884;52.538;13.820;2024-02-26T06:55:39;2.70;99.90
44843;DHT22;31884;52.538;13.820;2024-02-26T06:58:06;3.10;99.90
44843;DHT22;31884;52.538;13.820;2024-02-26T07:00:31;3.50;99.90
44843;DHT22;31884;52.538;13.820;2024-02-26T07:02:57;3.90;99.90
44843;DHT22;31884;52.538;13.820;2024-02-26T07:05:23;4.30;99.90
44843;DHT22;31884;52.538;13.820;2024-02-26T07:07:49;4.60;99.90
44843;DHT22;31884;52.538;13.820;2024-02-26T07:10:14;4.90;99.90
44843;DHT22;31884;52.538;13.820;2024-02-26T07:12:40;5.20;99.90
44843;DHT22;31884;52.538;13.820;2024-02-26T07:15:05;5.40;99.90
44843;DHT22;31884;52.538;13.820;2024-02-26T07:17:33;5.70;99.90
44843;DHT22;31884;52.538;13.820;2024-02-26T07:19:59;6.00;99.90
44843;DHT22;31884;52.538;13.820;2024-02-26T07:22:25;6.10;99.90
44843;DHT22;31884;52.538;13.820;2024-02-26T07:24:50;6.30;99.90
44843;DHT22;31884;52.538;13.820;2024-02-26T07:27:17;6.40;99.90
44843;DHT22;31884;52.538;13.820;2024-02-26T07:29:43;6.50;99.90
44843;DHT22;31884;52.538;13.820;2024-02-26T07:32:09;6.50;99.90
44843;DHT22;31884;52.538;13.820;2024-02-26T07:34:35;6.30;99.90
44843;DHT22;31884;52.538;13.820;2024-02-26T07:37:03;6.30;99.90
44843;DHT22;31884;52.538;13.820;2024-02-26T07:39:28;6.30;99.90
44843;DHT22;31884;52.538;13.820;2024-02-26T07:41:54;6.30;99.90
44843;DHT22;31884;52.538;13.820;2024-02-26T07:44:19;6.20;99.90
44843;DHT22;31884;52.538;13.820;2024-02-26T07:46:45;6.20;99.90
44843;DHT22;31884;52.538;13.820;2024-02-26T07:49:10;6.20;99.90
44843;DHT22;31884;52.538;13.820;2024-02-26T07:51:36;6.20;99.90
44843;DHT22;31884;52.538;13.820;2024-02-26T07:54:01;6.40;99.90
44843;DHT22;31884;52.538;13.820;2024-02-26T07:56:27;6.60;99.90
44843;DHT22;31884;52.538;13.820;2024-02-26T07:58:52;6.80;99.90
44843;DHT22;31884;52.538;13.820;2024-02-26T08:01:18;7.00;99.90
44843;DHT22;31884;52.538;13.820;2024-02-26T08:03:44;7.30;99.90
44843;DHT22;31884;52.538;13.820;2024-02-26T08:06:09;7.60;99.90
44843;DHT22;31884;52.538;13.820;2024-02-26T08:08:35;7.70;99.90
44843;DHT22;31884;52.538;13.820;2024-02-26T08:11:00;7.80;99.90
44843;DHT22;31884;52.538;13.820;2024-02-26T08:13:26;7.70;99.90
44843;DHT22;31884;52.538;13.820;2024-02-26T08:15:52;7.80;99.90
44843;DHT22;31884;52.538;13.820;2024-02-26T08:18:18;7.90;99.90
44843;DHT22;31884;52.538;13.820;2024-02-26T08:20:44;7.90;99.90
44843;DHT22;31884;52.538;13.820;2024-02-26T08:23:10;7.90;99.90
44843;DHT22;31884;52.538;13.820;2024-02-26T08:25:35;7.90;99.90
44843;DHT22;31884;52.538;13.820;2024-02-26T08:28:01;7.70;99.90
44843;DHT22;31884;52.538;13.820;2024-02-26T08:30:26;7.50;99.90
44843;DHT22;31884;52.538;13.820;2024-02-26T08:32:52;7.40;99.90
44843;DHT22;31884;52.538;13.820;2024-02-26T08:35:18;7.10;99.90
44843;DHT22;31884;52.538;13.820;2024-02-26T08:37:47;7.00;99.90
44843;DHT22;31884;52.538;13.820;2024-02-26T08:40:13;6.90;99.90
44843;DHT22;31884;52.538;13.820;2024-02-26T08:42:39;6.90;99.90
44843;DHT22;31884;52.538;13.820;2024-02-26T08:45:05;7.00;99.90
44843;DHT22;31884;52.538;13.820;2024-02-26T08:47:30;7.00;99.90
44843;DHT22;31884;52.538;13.820;2024-02-26T08:49:56;7.10;99.90
44843;DHT22;31884;52.538;13.820;2024-02-26T08:52:21;7.30;99.90
44843;DHT22;31884;52.538;13.820;2024-02-26T08:54:48;7.70;99.90
44843;DHT22;31884;52.538;13.820;2024-02-26T08:57:14;8.00;99.90
44843;DHT22;31884;52.538;13.820;2024-02-26T08:59:39;8.30;99.90
44843;DHT22;31884;52.538;13.820;2024-02-26T09:02:05;8.60;99.90
44843;DHT22;31884;52.538;13.820;2024-02-26T09:04:30;8.90;99.90
44843;DHT22;31884;52.538;13.820;2024-02-26T09:06:56;9.00;99.90
44843;DHT22;31884;52.538;13.820;2024-02-26T09:09:22;9.10;99.90
44843;DHT22;31884;52.538;13.820;2024-02-26T09:11:48;9.20;99.90
44843;DHT22;31884;52.538;13.820;2024-02-26T09:14:14;9.20;99.90
44843;DHT22;31884;52.538;13.820;2024-02-26T09:16:39;9.20;99.60
44843;DHT22;31884;52.538;13.820;2024-02-26T09:19:05;9.30;99.30
44843;DHT22;31884;52.538;13.820;2024-02-26T09:21:30;9.50;99.40
44843;DHT22;31884;52.538;13.820;2024-02-26T09:23:56;9.50;96.40
44843;DHT22;31884;52.538;13.820;2024-02-26T09:26:21;9.60;97.20
44843;DHT22;31884;52.538;13.820;2024-02-26T09:28:47;9.60;97.00
44843;DHT22;31884;52.538;13.820;2024-02-26T09:31:12;9.60;96.20
44843;DHT22;31884;52.538;13.820;2024-02-26T09:33:38;9.70;96.00
44843;DHT22;31884;52.538;13.820;2024-02-26T09:36:04;9.60;95.60
44843;DHT22;31884;52.538;13.820;2024-02-26T09:38:29;9.60;95.30
44843;DHT22;31884;52.538;13.820;2024-02-26T09:40:58;9.70;95.30
44843;DHT22;31884;52.538;13.820;2024-02-26T09:43:24;9.60;94.10
44843;DHT22;31884;52.538;13.820;2024-02-26T09:45:54;9.60;94.20
44843;DHT22;31884;52.538;13.820;2024-02-26T09:48:20;9.70;94.80
44843;DHT22;31884;52.538;13.820;2024-02-26T09:50:47;9.90;95.20
44843;DHT22;31884;52.538;13.820;2024-02-26T09:53:13;10.10;95.50
44843;DHT22;31884;52.538;13.820;2024-02-26T09:55:40;10.20;94.20
44843;DHT22;31884;52.538;13.820;2024-02-26T09:58:06;10.20;93.20
44843;DHT22;31884;52.538;13.820;2024-02-26T10:00:37;10.20;92.40
44843;DHT22;31884;52.538;13.820;2024-02-26T10:03:05;10.10;92.10
44843;DHT22;31884;52.538;13.820;2024-02-26T10:05:35;10.10;91.00
44843;DHT22;31884;52.538;13.820;2024-02-26T10:08:04;10.20;90.50
44843;DHT22;31884;52.538;13.820;2024-02-26T10:10:30;10.20;89.40
44843;DHT22;31884;52.538;13.820;2024-02-26T10:12:59;10.20;89.10
44843;DHT22;31884;52.538;13.820;2024-02-26T10:15:25;10.30;87.90
44843;DHT22;31884;52.538;13.820;2024-02-26T10:17:51;10.20;87.70
44843;DHT22;31884;52.538;13.820;2024-02-26T10:20:17;10.20;86.70
44843;DHT22;31884;52.538;13.820;2024-02-26T10:22:44;10.20;85.90
44843;DHT22;31884;52.538;13.820;2024-02-26T10:25:09;10.20;85.70
44843;DHT22;31884;52.538;13.820;2024-02-26T10:27:35;10.20;85.80
44843;DHT22;31884;52.538;13.820;2024-02-26T10:30:15;10.30;86.40
44843;DHT22;31884;52.538;13.820;2024-02-26T10:32:42;10.30;85.40
44843;DHT22;31884;52.538;13.820;2024-02-26T10:35:10;10.20;85.40
44843;DHT22;31884;52.538;13.820;2024-02-26T10:37:36;10.20;84.00
44843;DHT22;31884;52.538;13.820;2024-02-26T10:40:02;10.20;84.30
44843;DHT22;31884;52.538;13.820;2024-02-26T10:42:28;10.30;84.20
44843;DHT22;31884;52.538;13.820;2024-02-26T10:44:53;10.20;83.10
44843;DHT22;31884;52.538;13.820;2024-02-26T10:47:19;10.30;82.80
44843;DHT22;31884;52.538;13.820;2024-02-26T10:49:46;10.30;82.80
44843;DHT22;31884;52.538;13.820;2024-02-26T10:52:14;10.40;83.10
44843;DHT22;31884;52.538;13.820;2024-02-26T10:54:41;10.30;81.30
44843;DHT22;31884;52.538;13.820;2024-02-26T10:57:10;10.40;81.40
44843;DHT22;31884;52.538;13.820;2024-02-26T10:59:36;10.40;81.40
44843;DHT22;31884;52.538;13.820;2024-02-26T11:02:03;10.50;81.20
44843;DHT22;31884;52.538;13.820;2024-02-26T11:04:29;10.50;81.20
44843;DHT22;31884;52.538;13.820;2024-02-26T11:06:57;10.50;80.80
44843;DHT22;31884;52.538;13.820;2024-02-26T11:09:22;10.50;79.50
44843;DHT22;31884;52.538;13.820;2024-02-26T11:11:48;10.40;78.60
44843;DHT22;31884;52.538;13.820;2024-02-26T11:14:15;10.40;79.20
44843;DHT22;31884;52.538;13.820;2024-02-26T11:16:42;10.40;78.80
44843;DHT22;31884;52.538;13.820;2024-02-26T11:19:09;10.40;78.70
44843;DHT22;31884;52.538;13.820;2024-02-26T11:21:36;10.40;78.20
44843;DHT22;31884;52.538;13.820;2024-02-26T11:24:08;10.50;78.70
44843;DHT22;31884;52.538;13.820;2024-02-26T11:26:43;10.60;78.80
44843;DHT22;31884;52.538;13.820;2024-02-26T11:29:11;10.60;77.90
44843;DHT22;31884;52.538;13.820;2024-02-26T11:31:39;10.60;77.20
44843;DHT22;31884;52.538;13.820;2024-02-26T11:34:07;10.50;76.50
44843;DHT22;31884;52.538;13.820;2024-02-26T11:36:33;10.50;77.30
44843;DHT22;31884;52.538;13.820;2024-02-26T11:38:59;10.50;77.40
44843;DHT22;31884;52.538;13.820;2024-02-26T11:41:25;10.50;77.10
44843;DHT22;31884;52.538;13.820;2024-02-26T11:43:52;10.60;77.40
44843;DHT22;31884;52.538;13.820;2024-02-26T11:48:58;10.60;77.40
44843;DHT22;31884;52.538;13.820;2024-02-26T11:51:42;10.70;76.90
44843;DHT22;31884;52.538;13.820;2024-02-26T11:54:07;10.70;76.70
44843;DHT22;31884;52.538;13.820;2024-02-26T11:56:33;10.70;76.60
44843;DHT22;31884;52.538;13.820;2024-02-26T11:59:04;10.80;76.60
44843;DHT22;31884;52.538;13.820;2024-02-26T12:01:42;10.80;75.90
44843;DHT22;31884;52.538;13.820;2024-02-26T12:04:12;10.80;75.80
44843;DHT22;31884;52.538;13.820;2024-02-26T12:06:45;10.80;75.60
44843;DHT22;31884;52.538;13.820;2024-02-26T12:09:11;10.90;75.70
44843;DHT22;31884;52.538;13.820;2024-02-26T12:11:40;10.90;75.30
44843;DHT22;31884;52.538;13.820;2024-02-26T12:14:08;10.90;75.40
44843;DHT22;31884;52.538;13.820;2024-02-26T12:16:35;10.90;75.00
44843;DHT22;31884;52.538;13.820;2024-02-26T12:19:04;10.90;74.60
44843;DHT22;31884;52.538;13.820;2024-02-26T12:21:33;11.00;74.90
44843;DHT22;31884;52.538;13.820;2024-02-26T12:24:10;10.90;74.50
44843;DHT22;31884;52.538;13.820;2024-02-26T12:26:37;10.90;74.30
44843;DHT22;31884;52.538;13.820;2024-02-26T12:29:02;11.00;75.00
44843;DHT22;31884;52.538;13.820;2024-02-26T12:31:28;11.00;75.20
44843;DHT22;31884;52.538;13.820;2024-02-26T12:33:54;11.10;75.10
44843;DHT22;31884;52.538;13.820;2024-02-26T12:36:21;11.00;74.70
44843;DHT22;31884;52.538;13.820;2024-02-26T12:38:48;11.10;75.20
44843;DHT22;31884;52.538;13.820;2024-02-26T12:41:16;11.10;73.90
44843;DHT22;31884;52.538;13.820;2024-02-26T12:43:41;11.10;73.10
44843;DHT22;31884;52.538;13.820;2024-02-26T12:46:07;11.20;73.70
44843;DHT22;31884;52.538;13.820;2024-02-26T12:48:32;11.20;73.70
44843;DHT22;31884;52.538;13.820;2024-02-26T12:50:59;11.20;74.10
44843;DHT22;31884;52.538;13.820;2024-02-26T12:53:25;11.30;73.50
44843;DHT22;31884;52.538;13.820;2024-02-26T12:55:51;11.30;73.30
44843;DHT22;31884;52.538;13.820;2024-02-26T12:58:17;11.30;72.60
44843;DHT22;31884;52.538;13.820;2024-02-26T13:00:45;11.30;71.70
44843;DHT22;31884;52.538;13.820;2024-02-26T13:03:12;11.30;71.70
44843;DHT22;31884;52.538;13.820;2024-02-26T13:05:38;11.30;71.80
44843;DHT22;31884;52.538;13.820;2024-02-26T13:08:04;11.20;71.70
44843;DHT22;31884;52.538;13.820;2024-02-26T13:10:29;11.20;70.70
44843;DHT22;31884;52.538;13.820;2024-02-26T13:12:57;11.20;70.90
44843;DHT22;31884;52.538;13.820;2024-02-26T13:15:22;11.20;71.30
44843;DHT22;31884;52.538;13.820;2024-02-26T13:17:49;11.20;71.70
44843;DHT22;31884;52.538;13.820;2024-02-26T13:20:28;11.20;72.20
44843;DHT22;31884;52.538;13.820;2024-02-26T13:23:04;11.20;72.40
44843;DHT22;31884;52.538;13.820;2024-02-26T13:25:34;11.20;72.30
44843;DHT22;31884;52.538;13.820;2024-02-26T13:28:17;11.30;72.20
44843;DHT22;31884;52.538;13.820;2024-02-26T13:30:50;11.30;72.50
44843;DHT22;31884;52.538;13.820;2024-02-26T13:33:17;11.30;72.80
44843;DHT22;31884;52.538;13.820;2024-02-26T13:35:43;11.30;72.60
44843;DHT22;31884;52.538;13.820;2024-02-26T13:38:10;11.30;73.00
44843;DHT22;31884;52.538;13.820;2024-02-26T13:40:35;11.20;73.20
44843;DHT22;31884;52.538;13.820;2024-02-26T13:43:01;11.20;73.40
44843;DHT22;31884;52.538;13.820;2024-02-26T13:45:26;11.20;73.60
44843;DHT22;31884;52.538;13.820;2024-02-26T13:47:53;11.20;73.80
44843;DHT22;31884;52.538;13.820;2024-02-26T13:50:18;11.30;74.10
44843;DHT22;31884;52.538;13.820;2024-02-26T13:52:47;11.30;74.10
44843;DHT22;31884;52.538;13.820;2024-02-26T13:55:13;11.30;74.20
44843;DHT22;31884;52.538;13.820;2024-02-26T13:57:39;11.20;74.10
44843;DHT22;31884;52.538;13.820;2024-02-26T14:00:06;11.20;74.20
44843;DHT22;31884;52.538;13.820;2024-02-26T14:02:33;11.20;74.40
44843;DHT22;31884;52.538;13.820;2024-02-26T14:05:02;11.10;74.60
44843;DHT22;31884;52.538;13.820;2024-02-26T14:07:29;11.10;74.70
44843;DHT22;31884;52.538;13.820;2024-02-26T14:09:55;11.10;75.20
44843;DHT22;31884;52.538;13.820;2024-02-26T14:12:20;11.10;75.20
44843;DHT22;31884;52.538;13.820;2024-02-26T14:14:46;11.10;75.60
44843;DHT22;31884;52.538;13.820;2024-02-26T14:17:14;11.10;75.50
44843;DHT22;31884;52.538;13.820;2024-02-26T14:19:40;11.00;75.30
44843;DHT22;31884;52.538;13.820;2024-02-26T14:22:11;11.00;75.40
44843;DHT22;31884;52.538;13.820;2024-02-26T14:24:36;10.90;75.50
44843;DHT22;31884;52.538;13.820;2024-02-26T14:27:02;10.90;75.70
44843;DHT22;31884;52.538;13.820;2024-02-26T14:29:28;10.90;75.90
44843;DHT22;31884;52.538;13.820;2024-02-26T14:31:53;10.90;76.10
44843;DHT22;31884;52.538;13.820;2024-02-26T14:34:21;10.90;76.50
44843;DHT22;31884;52.538;13.820;2024-02-26T14:36:47;10.90;76.40
44843;DHT22;31884;52.538;13.820;2024-02-26T14:39:12;10.80;76.50
44843;DHT22;31884;52.538;13.820;2024-02-26T14:41:39;10.70;76.60
44843;DHT22;31884;52.538;13.820;2024-02-26T14:44:04;10.70;76.80
44843;DHT22;31884;52.538;13.820;2024-02-26T14:46:30;10.70;77.60
44843;DHT22;31884;52.538;13.820;2024-02-26T14:48:55;10.70;77.30
44843;DHT22;31884;52.538;13.820;2024-02-26T14:51:22;10.60;77.70
44843;DHT22;31884;52.538;13.820;2024-02-26T14:53:47;10.60;77.90
44843;DHT22;31884;52.538;13.820;2024-02-26T14:56:13;10.60;78.70
44843;DHT22;31884;52.538;13.820;2024-02-26T14:58:38;10.50;78.30
44843;DHT22;31884;52.538;13.820;2024-02-26T15:01:04;10.50;78.20
44843;DHT22;31884;52.538;13.820;2024-02-26T15:03:29;10.50;78.40
44843;DHT22;31884;52.538;13.820;2024-02-26T15:05:55;10.50;78.40
44843;DHT22;31884;52.538;13.820;2024-02-26T15:08:20;10.40;78.50
44843;DHT22;31884;52.538;13.820;2024-02-26T15:10:46;10.40;78.70
44843;DHT22;31884;52.538;13.820;2024-02-26T15:13:15;10.30;78.70
44843;DHT22;31884;52.538;13.820;2024-02-26T15:15:41;10.30;78.90
44843;DHT22;31884;52.538;13.820;2024-02-26T15:18:07;10.30;78.90
44843;DHT22;31884;52.538;13.820;2024-02-26T15:20:33;10.30;79.10